Time;durP1;ratioP1;P1;durP2;ratioP2;P2;SDS_P1;SDS_P2;PMS_P1;PMS_P2;Temp;Humidity;BMP_temperature;BMP_pressure;BME280_temperature;BME280_humidity;BME280_pressure;Samples;Min_cycle;Max_cycle;Signal;HPM_P1;HPM_P2
2022/06/05 00:01:25;;;;;;;2.92;2.72;;;17.00;99.90;;;;;;5033381;28;20064;-72
2022/06/05 00:03:57;;;;;;;2.92;2.22;;;17.00;99.90;;;;;;5032520;28;20040;-72
2022/06/05 00:06:34;;;;;;;3.13;2.55;;;17.10;99.90;;;;;;5030803;28;20078;-72
2022/06/05 00:09:29;;;;;;;3.83;2.67;;;17.10;99.90;;;;;;5032179;28;20026;-72
2022/06/05 00:12:06;;;;;;;3.65;2.83;;;17.10;99.90;;;;;;5032735;28;20049;-72
2022/06/05 00:14:39;;;;;;;3.83;2.50;;;17.00;99.90;;;;;;5047263;28;20036;-72
2022/06/05 00:17:09;;;;;;;3.72;2.92;;;17.10;99.90;;;;;;5034872;28;20029;-72
2022/06/05 00:19:37;;;;;;;5.70;2.95;;;17.20;99.90;;;;;;5035581;28;20021;-72
2022/06/05 00:22:05;;;;;;;3.17;2.95;;;17.20;99.90;;;;;;5035058;28;20025;-73
2022/06/05 00:24:35;;;;;;;3.08;2.88;;;17.20;99.90;;;;;;5035711;28;20029;-72
2022/06/05 00:27:18;;;;;;;2.45;2.25;;;17.30;99.90;;;;;;5053927;28;20029;-72
2022/06/05 00:29:47;;;;;;;4.05;3.08;;;17.40;99.90;;;;;;5050817;28;20030;-72
2022/06/05 00:32:39;;;;;;;2.55;2.25;;;17.40;99.90;;;;;;5034922;28;20042;-72
2022/06/05 00:35:13;;;;;;;4.20;3.33;;;17.50;99.90;;;;;;5038106;28;20047;-72
2022/06/05 00:37:45;;;;;;;2.92;2.70;;;17.50;99.90;;;;;;5045780;28;20049;-72
2022/06/05 00:40:33;;;;;;;3.40;2.83;;;17.50;99.90;;;;;;5033536;28;20037;-72
2022/06/05 00:43:03;;;;;;;4.32;3.42;;;17.60;99.90;;;;;;5034915;28;20036;-72
2022/06/05 00:45:30;;;;;;;2.60;2.17;;;17.60;99.90;;;;;;5035008;28;20029;-75
2022/06/05 00:47:57;;;;;;;3.03;2.75;;;17.40;99.90;;;;;;5034191;28;20049;-74
2022/06/05 00:50:27;;;;;;;4.47;2.70;;;17.40;99.90;;;;;;5034388;28;20267;-72
2022/06/05 00:53:00;;;;;;;2.13;1.92;;;17.40;99.90;;;;;;5035365;28;20029;-72
2022/06/05 00:55:30;;;;;;;3.63;2.88;;;17.40;99.90;;;;;;5034637;28;20044;-73
2022/06/05 00:57:57;;;;;;;2.97;2.67;;;17.40;99.90;;;;;;5050583;28;20048;-72
2022/06/05 01:00:25;;;;;;;3.65;3.13;;;17.50;99.90;;;;;;5034149;28;20263;-72
2022/06/05 01:02:54;;;;;;;3.45;3.13;;;17.40;99.90;;;;;;5034636;28;20026;-73
2022/06/05 01:05:22;;;;;;;3.47;2.92;;;17.30;99.90;;;;;;5034038;28;20387;-73
2022/06/05 01:07:48;;;;;;;4.75;4.32;;;17.20;99.90;;;;;;5034408;28;20029;-74
2022/06/05 01:10:17;;;;;;;3.22;2.92;;;17.20;99.90;;;;;;5051678;28;20044;-73
2022/06/05 01:13:16;;;;;;;3.55;3.25;;;17.30;99.90;;;;;;5036192;28;20053;-73
2022/06/05 01:16:03;;;;;;;5.05;3.55;;;17.40;99.90;;;;;;5034677;28;20033;-73
2022/06/05 01:18:42;;;;;;;3.15;2.88;;;17.90;99.90;;;;;;5033103;28;20462;-73
2022/06/05 01:21:08;;;;;;;3.60;3.28;;;18.50;99.90;;;;;;5033815;28;20033;-74
2022/06/05 01:23:55;;;;;;;3.67;3.38;;;18.70;99.90;;;;;;5034256;28;20029;-73
2022/06/05 01:26:34;;;;;;;5.95;5.32;;;18.30;99.90;;;;;;5032564;28;20467;-76
2022/06/05 01:29:06;;;;;;;6.85;5.93;;;17.90;99.90;;;;;;5034549;28;20041;-76
2022/06/05 01:31:39;;;;;;;6.32;5.07;;;17.80;99.90;;;;;;5033896;28;20041;-75
2022/06/05 01:34:39;;;;;;;4.75;4.35;;;17.90;99.90;;;;;;5041322;28;20025;-76
2022/06/05 01:37:27;;;;;;;4.20;3.92;;;17.80;99.90;;;;;;5033943;28;20503;-75
2022/06/05 01:40:18;;;;;;;6.38;4.60;;;17.70;99.90;;;;;;5033581;28;20040;-75
2022/06/05 01:43:32;;;;;;;6.07;5.05;;;17.80;99.90;;;;;;5033943;28;20040;-73
2022/06/05 01:46:06;;;;;;;5.65;5.22;;;17.70;99.90;;;;;;5032892;28;20045;-75
2022/06/05 01:48:38;;;;;;;6.88;6.22;;;17.70;99.90;;;;;;5032727;28;20033;-75
2022/06/05 01:51:12;;;;;;;5.53;5.05;;;17.80;99.90;;;;;;5040485;28;20051;-75
2022/06/05 01:53:43;;;;;;;7.88;5.43;;;17.80;99.90;;;;;;5047877;28;20356;-75
2022/06/05 01:56:22;;;;;;;6.35;5.60;;;17.80;99.90;;;;;;5033154;28;20029;-75
2022/06/05 01:58:54;;;;;;;5.10;4.70;;;17.80;99.90;;;;;;5043710;28;20037;-74
2022/06/05 02:01:25;;;;;;;6.93;5.20;;;17.90;99.90;;;;;;5036759;28;20390;-74
2022/06/05 02:04:04;;;;;;;6.55;5.95;;;18.00;99.90;;;;;;5043230;28;20056;-74
2022/06/05 02:06:36;;;;;;;5.10;4.70;;;17.90;99.90;;;;;;5051544;28;20104;-74
2022/06/05 02:09:23;;;;;;;5.85;5.35;;;17.80;99.90;;;;;;5033770;28;20030;-74
2022/06/05 02:11:50;;;;;;;6.70;5.68;;;17.70;99.90;;;;;;5033044;28;20049;-74
2022/06/05 02:14:16;;;;;;;5.63;5.22;;;17.60;99.90;;;;;;5044719;28;20052;-74
2022/06/05 02:16:43;;;;;;;6.43;5.70;;;17.60;99.90;;;;;;5033707;28;20052;-74
2022/06/05 02:19:13;;;;;;;6.18;5.68;;;17.60;99.90;;;;;;5032172;28;20040;-74
2022/06/05 02:21:40;;;;;;;5.88;5.35;;;17.50;99.90;;;;;;5033192;28;20041;-74
2022/06/05 02:24:08;;;;;;;6.40;5.78;;;17.30;99.90;;;;;;5032224;28;20034;-75
2022/06/05 02:26:35;;;;;;;5.57;5.10;;;17.20;99.90;;;;;;5032640;28;20056;-74
2022/06/05 02:29:04;;;;;;;6.03;5.53;;;17.10;99.90;;;;;;5047823;28;20037;-76
2022/06/05 02:32:03;;;;;;;6.45;5.90;;;17.10;99.90;;;;;;5035365;28;20037;-74
2022/06/05 02:34:44;;;;;;;5.85;4.93;;;17.30;99.90;;;;;;5032987;28;20038;-73
2022/06/05 02:37:30;;;;;;;5.50;4.90;;;17.50;99.90;;;;;;5037509;28;20053;-74
2022/06/05 02:40:16;;;;;;;7.47;6.32;;;17.60;99.90;;;;;;5032921;28;20041;-73
2022/06/05 02:42:58;;;;;;;5.13;4.72;;;17.70;99.90;;;;;;5031194;28;20038;-74
2022/06/05 02:45:27;;;;;;;5.18;4.68;;;17.80;99.90;;;;;;5041526;28;20056;-74
2022/06/05 02:48:03;;;;;;;5.15;4.63;;;17.80;99.90;;;;;;5032703;28;20038;-74
2022/06/05 02:50:49;;;;;;;5.45;4.93;;;17.70;99.90;;;;;;5033354;28;20482;-73
2022/06/05 02:53:15;;;;;;;4.40;4.00;;;17.80;99.90;;;;;;5046949;28;20033;-74
2022/06/05 02:55:42;;;;;;;4.28;3.88;;;17.90;99.90;;;;;;5032592;28;20026;-74
2022/06/05 02:58:11;;;;;;;5.68;4.20;;;18.10;99.90;;;;;;5042861;28;20044;-74
2022/06/05 03:00:38;;;;;;;4.10;3.42;;;18.10;99.90;;;;;;5032582;28;20033;-74
2022/06/05 03:05:51;;;;;;;3.97;3.05;;;18.20;99.90;;;;;;5032930;28;20037;-75
2022/06/05 03:08:19;;;;;;;4.68;3.72;;;18.30;99.90;;;;;;5032480;28;20050;-73
2022/06/05 03:10:46;;;;;;;3.53;3.20;;;18.40;99.90;;;;;;5032705;28;20038;-73
2022/06/05 03:13:13;;;;;;;3.83;3.50;;;18.40;99.90;;;;;;5032002;28;20060;-73
2022/06/05 03:15:41;;;;;;;3.85;3.55;;;18.30;99.90;;;;;;5032010;28;20470;-73
2022/06/05 03:18:09;;;;;;;5.00;3.38;;;18.30;99.90;;;;;;5032367;28;20041;-73
2022/06/05 03:20:35;;;;;;;4.45;3.83;;;18.20;99.90;;;;;;5032400;28;20041;-73
2022/06/05 03:23:02;;;;;;;4.20;3.90;;;18.20;99.90;;;;;;5032305;28;20455;-73
2022/06/05 03:25:28;;;;;;;4.55;3.92;;;18.10;99.90;;;;;;5035545;28;20029;-73
2022/06/05 03:27:54;;;;;;;5.60;5.03;;;18.10;99.90;;;;;;5037467;28;20056;-73
2022/06/05 03:30:21;;;;;;;3.95;3.65;;;18.00;99.90;;;;;;5036475;28;20036;-73
2022/06/05 03:32:47;;;;;;;4.22;3.78;;;17.90;99.90;;;;;;5039643;28;20033;-73
2022/06/05 03:35:15;;;;;;;5.45;4.07;;;18.00;99.90;;;;;;5037224;28;20474;-74
2022/06/05 03:37:41;;;;;;;4.70;4.30;;;17.90;99.90;;;;;;5033212;28;20037;-73
2022/06/05 03:40:14;;;;;;;5.15;4.75;;;17.90;99.90;;;;;;5031562;28;20042;-74
2022/06/05 03:42:41;;;;;;;7.40;4.75;;;18.10;99.90;;;;;;5032293;28;20037;-73
2022/06/05 03:45:17;;;;;;;5.88;5.32;;;18.20;99.90;;;;;;5031745;28;20029;-72
2022/06/05 03:47:44;;;;;;;4.70;4.32;;;18.20;99.90;;;;;;5034138;28;20656;-73
2022/06/05 03:50:12;;;;;;;7.28;5.30;;;18.30;99.90;;;;;;5047680;28;20045;-73
2022/06/05 03:52:38;;;;;;;5.25;4.75;;;18.30;99.90;;;;;;5035319;28;20034;-73
2022/06/05 03:55:04;;;;;;;5.60;5.10;;;18.30;99.90;;;;;;5044795;28;20032;-73
2022/06/05 03:57:31;;;;;;;4.60;4.20;;;18.20;99.90;;;;;;5045345;28;20038;-72
2022/06/05 03:59:58;;;;;;;6.95;4.78;;;18.20;99.90;;;;;;5042578;28;20029;-73
2022/06/05 04:02:25;;;;;;;5.75;5.25;;;18.20;99.90;;;;;;5046407;28;20458;-72
2022/06/05 04:04:52;;;;;;;6.57;6.05;;;18.30;99.90;;;;;;5036037;28;20029;-72
2022/06/05 04:07:19;;;;;;;6.78;6.13;;;18.40;99.90;;;;;;5042362;28;20036;-72
2022/06/05 04:09:45;;;;;;;12.98;6.03;;;18.50;99.90;;;;;;5040657;28;20033;-73
2022/06/05 04:12:11;;;;;;;7.22;6.53;;;18.60;99.90;;;;;;5035885;28;20049;-72
2022/06/05 04:14:37;;;;;;;8.40;6.50;;;18.50;99.90;;;;;;5035313;28;20037;-73
2022/06/05 04:17:03;;;;;;;9.07;7.35;;;18.40;99.90;;;;;;5035218;28;20041;-72
2022/06/05 04:19:30;;;;;;;9.68;8.23;;;18.30;99.90;;;;;;5034430;28;20040;-73
2022/06/05 04:21:56;;;;;;;8.95;7.18;;;18.30;99.90;;;;;;5035336;28;20026;-73
2022/06/05 04:24:22;;;;;;;7.90;7.20;;;18.10;99.90;;;;;;5035030;28;20355;-72
2022/06/05 04:26:48;;;;;;;8.80;7.90;;;18.00;99.90;;;;;;5041987;28;20039;-72
2022/06/05 04:29:14;;;;;;;7.63;6.93;;;18.00;99.90;;;;;;5044491;28;20045;-72
2022/06/05 04:31:46;;;;;;;7.97;6.82;;;17.90;99.90;;;;;;5041222;28;20049;-72
2022/06/05 04:34:17;;;;;;;9.52;7.90;;;17.90;99.90;;;;;;5033638;28;20030;-72
2022/06/05 04:36:43;;;;;;;8.15;7.45;;;17.80;99.90;;;;;;5053549;28;20032;-72
2022/06/05 04:39:10;;;;;;;11.65;8.93;;;17.80;99.90;;;;;;5038201;28;20033;-73
2022/06/05 04:41:37;;;;;;;9.57;8.68;;;17.70;99.90;;;;;;5035193;28;20038;-72
2022/06/05 04:44:05;;;;;;;8.55;7.85;;;17.70;99.90;;;;;;5034993;28;20021;-72
2022/06/05 04:46:32;;;;;;;10.02;8.68;;;17.60;99.90;;;;;;5046141;28;20033;-72
2022/06/05 04:48:59;;;;;;;9.45;8.20;;;17.50;99.90;;;;;;5045724;28;20049;-72
2022/06/05 04:51:26;;;;;;;8.52;7.82;;;17.50;99.90;;;;;;5034308;28;20049;-71
2022/06/05 04:53:54;;;;;;;10.00;9.10;;;17.40;99.90;;;;;;5048337;28;20025;-71
2022/06/05 04:56:24;;;;;;;8.98;8.20;;;17.30;99.90;;;;;;5034897;28;20367;-72
2022/06/05 04:58:51;;;;;;;9.88;9.02;;;17.30;99.90;;;;;;5034170;28;20398;-72
2022/06/05 05:01:27;;;;;;;9.05;8.15;;;17.30;99.90;;;;;;5034337;28;20494;-72
2022/06/05 05:04:00;;;;;;;11.32;10.27;;;17.20;99.90;;;;;;5034714;28;20033;-72
2022/06/05 05:06:28;;;;;;;10.57;9.57;;;17.30;99.90;;;;;;5041715;28;20041;-72
2022/06/05 05:08:54;;;;;;;10.15;9.10;;;17.30;99.90;;;;;;5044952;28;20041;-71
2022/06/05 05:11:21;;;;;;;10.77;9.80;;;17.30;99.90;;;;;;5032703;28;20467;-72
2022/06/05 05:13:48;;;;;;;10.13;9.18;;;17.30;99.90;;;;;;5034120;28;20041;-71
2022/06/05 05:16:14;;;;;;;13.38;11.32;;;17.20;99.90;;;;;;5033519;28;20056;-72
2022/06/05 05:18:41;;;;;;;11.48;10.32;;;17.20;99.90;;;;;;5036551;28;20040;-72
2022/06/05 05:21:12;;;;;;;10.57;9.48;;;17.20;99.90;;;;;;5044104;28;20033;-72
2022/06/05 05:23:38;;;;;;;11.57;10.57;;;17.20;99.90;;;;;;5033687;28;20033;-73
2022/06/05 05:26:11;;;;;;;15.95;9.05;;;17.20;99.90;;;;;;5043586;28;20026;-71
2022/06/05 05:28:38;;;;;;;11.20;10.20;;;17.10;99.90;;;;;;5033961;28;20038;-73
2022/06/05 05:31:10;;;;;;;12.38;11.02;;;17.10;99.90;;;;;;5052875;28;20394;-72
2022/06/05 05:33:37;;;;;;;11.93;10.93;;;17.10;99.90;;;;;;5037828;28;20033;-72
2022/06/05 05:36:04;;;;;;;11.55;10.52;;;17.20;99.90;;;;;;5033047;28;20048;-72
2022/06/05 05:38:30;;;;;;;14.75;12.93;;;17.20;99.90;;;;;;5033290;28;20040;-72
2022/06/05 05:43:41;;;;;;;14.23;11.60;;;17.30;99.90;;;;;;5033814;28;20036;-72
2022/06/05 05:46:12;;;;;;;11.98;10.98;;;17.20;99.90;;;;;;5034066;28;20413;-72
2022/06/05 05:48:39;;;;;;;12.38;11.25;;;17.20;99.90;;;;;;5033459;28;20038;-71
2022/06/05 05:51:12;;;;;;;12.52;11.32;;;17.30;99.90;;;;;;5048791;28;20037;-72
2022/06/05 05:53:39;;;;;;;13.02;11.70;;;17.30;99.90;;;;;;5037105;28;20041;-72
2022/06/05 05:56:11;;;;;;;16.05;14.60;;;17.30;99.90;;;;;;5033629;28;20383;-72
2022/06/05 05:58:38;;;;;;;12.70;11.60;;;17.30;99.90;;;;;;5032940;28;20473;-74
2022/06/05 06:01:07;;;;;;;13.82;12.63;;;17.30;99.90;;;;;;5033257;28;20030;-72
2022/06/05 06:03:34;;;;;;;13.90;12.60;;;17.30;99.90;;;;;;5036633;28;20029;-71
2022/06/05 06:06:02;;;;;;;12.65;11.55;;;17.30;99.90;;;;;;5037286;28;20570;-71
2022/06/05 06:08:29;;;;;;;12.35;11.40;;;17.30;99.90;;;;;;5032614;28;20394;-72
2022/06/05 06:10:55;;;;;;;13.52;12.38;;;17.30;99.90;;;;;;5049346;28;20033;-72
2022/06/05 06:13:22;;;;;;;13.00;11.77;;;17.30;99.90;;;;;;5032793;28;20114;-73
2022/06/05 06:15:49;;;;;;;13.20;12.00;;;17.30;99.90;;;;;;5033442;28;20022;-73
2022/06/05 06:18:16;;;;;;;14.55;13.15;;;17.30;99.90;;;;;;5035269;28;20040;-73
2022/06/05 06:20:43;;;;;;;12.43;11.38;;;17.30;99.90;;;;;;5038437;28;20037;-73
2022/06/05 06:23:09;;;;;;;14.05;12.85;;;17.40;99.90;;;;;;5032867;28;20029;-73
2022/06/05 06:25:36;;;;;;;13.57;12.40;;;17.40;99.90;;;;;;5033455;28;20042;-73
2022/06/05 06:28:03;;;;;;;13.20;12.10;;;17.50;99.90;;;;;;5042012;28;20489;-73
2022/06/05 06:30:32;;;;;;;12.63;11.63;;;17.50;99.90;;;;;;5045328;28;20467;-73
2022/06/05 06:32:58;;;;;;;13.65;12.65;;;17.60;99.90;;;;;;5032639;28;20049;-74
2022/06/05 06:35:25;;;;;;;15.70;11.73;;;17.70;99.90;;;;;;5030914;28;20041;-73
2022/06/05 06:37:51;;;;;;;13.38;12.13;;;17.60;99.90;;;;;;5033022;28;20034;-74
2022/06/05 06:40:17;;;;;;;10.63;9.73;;;17.60;99.90;;;;;;5032575;28;20048;-73
2022/06/05 06:42:43;;;;;;;13.48;12.27;;;17.70;99.90;;;;;;5033019;28;20357;-73
2022/06/05 06:45:10;;;;;;;13.10;11.95;;;17.80;99.90;;;;;;5047096;28;20064;-73
2022/06/05 06:47:37;;;;;;;11.15;10.13;;;18.00;99.90;;;;;;5030903;28;20033;-73
2022/06/05 06:50:04;;;;;;;10.23;9.48;;;18.00;99.90;;;;;;5031841;28;20044;-73
2022/06/05 06:52:31;;;;;;;12.55;11.23;;;17.90;99.90;;;;;;5046139;28;20029;-73
2022/06/05 06:54:58;;;;;;;10.27;9.48;;;18.00;99.90;;;;;;5037153;28;20029;-73
2022/06/05 06:57:24;;;;;;;15.93;11.05;;;18.00;99.90;;;;;;5048175;28;20386;-73
2022/06/05 06:59:50;;;;;;;12.15;9.85;;;18.20;99.90;;;;;;5042829;28;20482;-74
2022/06/05 07:02:16;;;;;;;9.88;9.10;;;18.40;99.90;;;;;;5037799;28;20056;-73
2022/06/05 07:04:42;;;;;;;9.82;8.05;;;18.60;99.90;;;;;;5046396;28;20033;-73
2022/06/05 07:07:09;;;;;;;10.60;9.13;;;18.60;99.90;;;;;;5034433;28;20037;-74
2022/06/05 07:09:35;;;;;;;8.38;7.68;;;18.70;99.90;;;;;;5031988;28;20028;-73
2022/06/05 07:12:01;;;;;;;11.57;8.50;;;18.80;99.90;;;;;;5042750;28;20053;-73
2022/06/05 07:14:27;;;;;;;6.85;6.25;;;18.90;99.90;;;;;;5032021;28;20039;-73
2022/06/05 07:16:54;;;;;;;7.82;7.15;;;18.80;99.90;;;;;;5032293;28;20091;-73
2022/06/05 07:19:20;;;;;;;7.72;7.13;;;18.90;99.90;;;;;;5031967;28;20113;-73
2022/06/05 07:21:46;;;;;;;10.05;7.28;;;19.10;99.90;;;;;;5031282;28;20475;-75
2022/06/05 07:24:13;;;;;;;8.50;7.57;;;19.30;99.90;;;;;;5034809;28;20045;-73
2022/06/05 07:26:39;;;;;;;8.20;7.50;;;19.40;99.90;;;;;;5051915;28;20040;-73
2022/06/05 07:29:05;;;;;;;6.78;5.18;;;19.40;99.90;;;;;;5040322;28;20040;-73
2022/06/05 07:31:32;;;;;;;10.52;7.10;;;19.10;99.90;;;;;;5036353;28;20490;-73
2022/06/05 07:34:00;;;;;;;7.15;6.45;;;19.00;99.90;;;;;;5036164;28;20040;-73
2022/06/05 07:36:27;;;;;;;6.68;6.07;;;19.10;99.90;;;;;;5035379;28;20034;-73
2022/06/05 07:38:55;;;;;;;7.70;6.90;;;19.30;99.90;;;;;;5035193;28;20053;-74
2022/06/05 07:41:29;;;;;;;7.38;6.45;;;19.40;99.90;;;;;;5035600;28;20049;-74
2022/06/05 07:43:56;;;;;;;7.95;6.45;;;19.30;99.90;;;;;;5052235;28;20029;-74
2022/06/05 07:46:23;;;;;;;14.55;7.47;;;19.30;99.90;;;;;;5046451;28;20029;-74
2022/06/05 07:48:49;;;;;;;7.75;6.97;;;19.30;99.90;;;;;;5042658;28;20029;-73
2022/06/05 07:54:27;;;;;;;9.70;6.97;;;19.20;99.90;;;;;;5059914;28;20044;-75
2022/06/05 07:56:59;;;;;;;8.68;7.97;;;19.10;99.90;;;;;;5046465;28;20108;-73
2022/06/05 07:59:28;;;;;;;7.45;6.85;;;19.10;99.90;;;;;;5046633;28;20060;-73
2022/06/05 08:01:56;;;;;;;8.73;7.78;;;19.10;99.90;;;;;;5035465;28;20036;-72
2022/06/05 08:04:22;;;;;;;9.43;8.38;;;19.10;99.90;;;;;;5035465;28;20033;-73
2022/06/05 08:06:49;;;;;;;9.63;8.85;;;19.10;99.90;;;;;;5035484;28;20402;-75
2022/06/05 08:09:15;;;;;;;9.05;8.20;;;19.20;99.90;;;;;;5035085;28;20052;-73
2022/06/05 08:11:45;;;;;;;9.35;8.45;;;19.20;99.90;;;;;;5035680;28;20471;-73
2022/06/05 08:14:14;;;;;;;10.10;9.07;;;19.10;99.90;;;;;;5035465;28;20040;-73
2022/06/05 08:16:43;;;;;;;7.85;7.10;;;19.10;99.90;;;;;;5034959;28;20045;-73
2022/06/05 08:19:12;;;;;;;8.85;8.05;;;19.20;99.90;;;;;;5044927;28;20050;-74
2022/06/05 08:21:39;;;;;;;7.95;7.28;;;19.30;99.90;;;;;;5034926;28;20387;-73
2022/06/05 08:24:06;;;;;;;14.25;9.30;;;19.20;99.90;;;;;;5035362;28;20067;-73
2022/06/05 08:26:33;;;;;;;9.65;8.05;;;19.20;99.90;;;;;;5034785;28;20026;-74
2022/06/05 08:28:59;;;;;;;8.73;7.88;;;19.30;99.90;;;;;;5043319;28;20044;-74
2022/06/05 08:31:27;;;;;;;7.68;7.00;;;19.40;99.90;;;;;;5049771;28;20041;-74
2022/06/05 08:33:53;;;;;;;8.00;7.18;;;19.40;99.90;;;;;;5034736;28;20026;-73
2022/06/05 08:36:19;;;;;;;6.78;6.20;;;19.50;99.90;;;;;;5035024;28;20048;-73
2022/06/05 08:42:12;;;;;;;5.93;5.43;;;19.60;99.90;;;;;;5035176;28;20049;-72
2022/06/05 08:44:43;;;;;;;6.22;5.63;;;19.60;99.90;;;;;;5035292;28;20025;-72
2022/06/05 08:47:13;;;;;;;7.18;6.50;;;19.70;99.90;;;;;;5033845;28;20049;-73
2022/06/05 08:49:52;;;;;;;6.22;5.72;;;19.80;99.90;;;;;;5044392;28;20490;-74
2022/06/05 08:52:31;;;;;;;7.07;6.47;;;19.80;99.90;;;;;;5034955;28;20455;-74
2022/06/05 08:55:25;;;;;;;7.72;6.22;;;20.00;99.90;;;;;;5041776;28;20382;-74
2022/06/05 08:58:21;;;;;;;8.43;7.68;;;20.20;99.90;;;;;;5034280;28;20482;-74
2022/06/05 09:01:15;;;;;;;8.93;8.13;;;20.30;99.90;;;;;;5035722;28;20053;-74
2022/06/05 09:03:48;;;;;;;8.68;7.95;;;20.30;99.90;;;;;;5037051;28;20037;-71
2022/06/05 09:06:21;;;;;;;9.00;8.30;;;20.40;99.90;;;;;;5034294;28;20049;-74
2022/06/05 09:08:54;;;;;;;10.07;9.07;;;20.50;99.90;;;;;;5035391;28;20475;-73
2022/06/05 09:11:36;;;;;;;9.25;8.55;;;20.40;99.90;;;;;;5033553;28;20060;-74
2022/06/05 09:14:12;;;;;;;11.68;8.57;;;20.50;99.90;;;;;;5033513;28;20048;-74
2022/06/05 09:16:45;;;;;;;9.07;8.38;;;20.80;99.90;;;;;;5052198;28;20029;-74
2022/06/05 09:19:17;;;;;;;10.32;9.52;;;21.20;99.90;;;;;;5034064;28;20487;-71
2022/06/05 09:22:11;;;;;;;7.25;6.65;;;21.40;99.90;;;;;;5034620;28;20052;-71
2022/06/05 09:24:37;;;;;;;7.50;6.88;;;21.90;99.90;;;;;;5033293;28;20044;-75
2022/06/05 09:27:26;;;;;;;8.30;5.80;;;21.90;99.90;;;;;;5033835;28;20026;-73
2022/06/05 09:30:00;;;;;;;5.78;5.28;;;21.90;99.90;;;;;;5041716;28;20033;-72
2022/06/05 09:33:01;;;;;;;7.70;6.20;;;22.00;99.90;;;;;;5032810;28;20467;-72
2022/06/05 09:35:41;;;;;;;6.60;5.70;;;21.80;99.90;;;;;;5042532;28;20029;-72
2022/06/05 09:38:22;;;;;;;7.18;6.57;;;21.30;99.90;;;;;;5042891;28;20040;-72
2022/06/05 09:41:31;;;;;;;7.35;6.53;;;21.50;99.90;;;;;;5037852;28;20046;-72
2022/06/05 09:44:16;;;;;;;6.15;5.60;;;21.90;99.90;;;;;;5033714;28;20033;-72
2022/06/05 09:46:48;;;;;;;5.85;5.03;;;23.00;99.90;;;;;;5032893;28;20033;-72
2022/06/05 09:49:35;;;;;;;5.30;4.80;;;23.60;99.80;;;;;;5032580;28;20379;-73
2022/06/05 09:52:15;;;;;;;5.53;5.05;;;24.00;99.90;;;;;;5033853;28;20402;-72
2022/06/05 09:54:44;;;;;;;;;;;24.40;96.30;;;;;;5033958;28;20037;-72
2022/06/05 10:00:37;;;;;;;6.18;5.63;;;23.90;97.00;;;;;;5035265;28;20037;-72
2022/06/05 10:03:10;;;;;;;7.07;6.40;;;24.10;98.20;;;;;;5033003;28;20042;-72
2022/06/05 10:05:45;;;;;;;8.25;6.07;;;24.30;97.10;;;;;;5033563;28;20378;-73
2022/06/05 10:08:31;;;;;;;6.13;5.60;;;25.00;96.00;;;;;;5041227;28;20052;-71
2022/06/05 10:11:01;;;;;;;6.28;5.78;;;25.50;91.70;;;;;;5033115;28;20033;-72
2022/06/05 10:13:59;;;;;;;5.88;5.30;;;24.90;92.50;;;;;;5042897;28;20049;-72
2022/06/05 10:16:53;;;;;;;7.45;6.28;;;24.70;93.00;;;;;;5033056;28;20364;-72
2022/06/05 10:19:56;;;;;;;6.03;5.53;;;23.90;94.60;;;;;;5027977;28;20053;-73
2022/06/05 10:22:44;;;;;;;5.63;5.13;;;23.40;96.70;;;;;;5033138;28;20033;-72
2022/06/05 10:25:27;;;;;;;6.82;6.15;;;24.00;95.90;;;;;;5031967;28;20132;-71
2022/06/05 10:28:02;;;;;;;9.30;5.43;;;23.80;95.90;;;;;;5048669;28;20045;-74
2022/06/05 10:30:33;;;;;;;6.88;6.18;;;23.50;95.80;;;;;;5031852;28;20496;-73
2022/06/05 10:33:13;;;;;;;6.95;6.28;;;23.40;96.00;;;;;;5032884;28;20382;-75
2022/06/05 10:35:52;;;;;;;;;;;23.10;96.30;;;;;;5033169;28;20040;-74
2022/06/05 10:38:21;;;;;;;5.80;5.30;;;22.50;98.60;;;;;;5046343;28;19919;-75
2022/06/05 10:40:59;;;;;;;6.32;5.55;;;22.80;98.30;;;;;;5032745;28;20045;-73
2022/06/05 10:43:28;;;;;;;6.65;5.97;;;23.00;97.70;;;;;;5032409;28;20034;-73
2022/06/05 10:46:08;;;;;;;7.97;5.75;;;23.10;96.00;;;;;;5032662;28;20029;-73
2022/06/05 10:48:40;;;;;;;10.88;6.07;;;23.40;95.80;;;;;;5034172;28;20040;-73
2022/06/05 10:51:35;;;;;;;5.93;5.30;;;23.50;97.30;;;;;;5050452;28;20025;-74
2022/06/05 10:54:39;;;;;;;6.80;4.93;;;23.40;96.40;;;;;;5048201;28;20025;-73
2022/06/05 10:57:21;;;;;;;6.38;5.82;;;23.70;96.90;;;;;;5032474;28;20042;-74
2022/06/05 11:00:14;;;;;;;7.00;6.40;;;23.50;95.70;;;;;;5032909;28;20459;-74
2022/06/05 11:03:07;;;;;;;5.93;5.43;;;23.10;97.00;;;;;;5032035;28;20029;-73
2022/06/05 11:06:10;;;;;;;5.75;5.25;;;23.60;96.40;;;;;;5032101;28;20034;-73
2022/06/05 11:08:51;;;;;;;4.97;4.40;;;24.40;95.70;;;;;;5032233;28;20030;-73
2022/06/05 11:14:40;;;;;;;4.35;4.00;;;25.20;90.90;;;;;;5032539;28;20034;-72
2022/06/05 11:17:25;;;;;;;4.28;3.95;;;25.10;88.70;;;;;;5042965;28;20033;-72
2022/06/05 11:20:24;;;;;;;3.63;3.38;;;24.80;92.50;;;;;;5036907;28;20042;-73
2022/06/05 11:22:58;;;;;;;3.58;3.28;;;24.80;91.60;;;;;;5032358;28;20025;-72
2022/06/05 11:25:42;;;;;;;3.42;2.88;;;24.00;93.60;;;;;;5031723;28;20040;-73
2022/06/05 11:28:27;;;;;;;4.63;4.22;;;24.00;94.30;;;;;;5047600;28;20052;-73
2022/06/05 11:31:05;;;;;;;4.72;4.32;;;24.30;93.30;;;;;;5044924;28;20040;-73
2022/06/05 11:33:38;;;;;;;4.78;4.32;;;24.10;93.20;;;;;;5033519;28;20093;-73
2022/06/05 11:36:19;;;;;;;4.80;4.35;;;23.80;94.20;;;;;;5032349;28;20037;-74
2022/06/05 11:39:07;;;;;;;8.07;4.70;;;24.00;93.80;;;;;;5031907;28;20034;-73
2022/06/05 11:42:01;;;;;;;4.70;4.07;;;24.50;93.60;;;;;;5042189;28;20509;-72
2022/06/05 11:44:39;;;;;;;4.57;3.47;;;24.70;93.00;;;;;;5029454;28;20498;-72
2022/06/05 11:47:24;;;;;;;4.95;4.50;;;24.20;94.00;;;;;;5046326;28;20109;-72
2022/06/05 11:50:09;;;;;;;4.45;4.10;;;23.90;94.60;;;;;;5031940;28;20045;-73
2022/06/05 11:53:08;;;;;;;5.07;4.60;;;23.40;95.40;;;;;;5032558;28;20030;-72
2022/06/05 11:56:16;;;;;;;5.20;4.70;;;23.20;96.60;;;;;;5029250;28;20499;-73
2022/06/05 11:59:00;;;;;;;4.05;3.72;;;23.10;97.40;;;;;;5028417;28;20045;-73
2022/06/05 12:01:31;;;;;;;5.57;4.32;;;23.00;99.80;;;;;;5031480;28;20029;-73
2022/06/05 12:04:21;;;;;;;8.68;5.28;;;22.80;99.90;;;;;;5032069;28;20025;-73
2022/06/05 12:06:52;;;;;;;6.93;6.22;;;22.70;99.90;;;;;;5035045;28;20029;-73
2022/06/05 12:09:29;;;;;;;15.57;6.90;;;22.50;99.90;;;;;;5036065;28;20037;-73
2022/06/05 12:12:13;;;;;;;7.28;6.68;;;22.40;99.90;;;;;;5039110;28;20060;-73
2022/06/05 12:15:14;;;;;;;8.88;8.07;;;22.20;99.90;;;;;;5040488;28;20463;-73
2022/06/05 12:17:52;;;;;;;11.73;9.90;;;22.00;99.90;;;;;;5038508;28;20033;-73
2022/06/05 12:20:34;;;;;;;12.18;10.38;;;21.60;99.90;;;;;;5036698;28;20042;-74
2022/06/05 12:23:25;;;;;;;12.20;11.00;;;20.50;99.90;;;;;;5051434;28;20045;-74
2022/06/05 12:26:26;;;;;;;12.52;11.43;;;20.10;99.90;;;;;;5051039;28;20051;-74
2022/06/05 12:29:12;;;;;;;16.70;13.73;;;20.00;99.90;;;;;;5035749;28;20022;-74
2022/06/05 12:31:53;;;;;;;16.20;14.80;;;20.20;99.90;;;;;;5049271;28;20048;-72
2022/06/05 12:34:25;;;;;;;17.70;16.10;;;20.20;99.90;;;;;;5035290;28;20037;-75
2022/06/05 12:37:05;;;;;;;14.93;13.63;;;20.30;99.90;;;;;;5048955;28;20049;-75
2022/06/05 12:39:41;;;;;;;12.75;11.60;;;20.20;99.90;;;;;;5034388;28;20041;-74
2022/06/05 12:42:26;;;;;;;14.27;12.00;;;20.20;99.90;;;;;;5035726;28;20350;-74
2022/06/05 12:44:58;;;;;;;14.05;12.85;;;20.30;99.90;;;;;;5035284;28;20351;-75
2022/06/05 12:47:54;;;;;;;13.55;12.25;;;20.80;99.90;;;;;;5034779;28;20029;-75
2022/06/05 12:50:36;;;;;;;10.35;9.57;;;20.80;99.90;;;;;;5031058;28;20052;-74
2022/06/05 12:53:22;;;;;;;15.77;11.30;;;20.80;99.90;;;;;;5050477;28;20030;-74
2022/06/05 12:55:58;;;;;;;12.30;10.10;;;20.80;99.90;;;;;;5035352;28;20033;-74
2022/06/05 12:59:00;;;;;;;10.32;9.18;;;20.80;99.90;;;;;;5034861;28;20033;-75
2022/06/05 13:01:39;;;;;;;8.18;7.47;;;20.80;99.90;;;;;;5035007;28;20041;-75
2022/06/05 13:04:47;;;;;;;10.13;9.13;;;20.70;99.90;;;;;;5033750;28;20030;-74
2022/06/05 13:07:41;;;;;;;12.63;8.55;;;21.00;99.90;;;;;;5031810;28;20045;-75
2022/06/05 13:10:23;;;;;;;9.05;8.20;;;21.40;99.90;;;;;;5034376;28;20356;-75
2022/06/05 13:13:19;;;;;;;6.97;5.57;;;21.40;99.90;;;;;;5034764;28;20053;-77
2022/06/05 13:15:54;;;;;;;5.45;4.95;;;21.10;99.90;;;;;;5033981;28;20642;-74
2022/06/05 13:18:33;;;;;;;4.85;4.30;;;21.00;99.90;;;;;;5034685;28;20489;-75
2022/06/05 13:21:21;;;;;;;3.65;3.35;;;21.00;99.90;;;;;;5033905;28;20049;-74
2022/06/05 13:24:22;;;;;;;5.15;4.07;;;20.80;99.90;;;;;;5034141;28;20040;-74
2022/06/05 13:27:11;;;;;;;5.45;4.13;;;20.90;99.90;;;;;;5041343;28;20044;-74
2022/06/05 13:30:13;;;;;;;4.05;3.67;;;21.00;99.90;;;;;;5043371;28;20034;-74
2022/06/05 13:32:58;;;;;;;4.85;3.47;;;21.10;99.90;;;;;;5048929;28;20501;-74
2022/06/05 13:35:56;;;;;;;5.35;4.50;;;21.10;99.90;;;;;;5037119;28;20026;-76
2022/06/05 13:38:32;;;;;;;4.40;4.00;;;21.40;99.90;;;;;;5032015;28;20045;-73
2022/06/05 13:41:01;;;;;;;5.95;3.75;;;21.80;99.90;;;;;;5034161;28;20431;-73